Time;durP1;ratioP1;P1;durP2;ratioP2;P2;SDS_P1;SDS_P2;PMS_P1;PMS_P2;Temp;Humidity;BMP_temperature;BMP_pressure;BME280_temperature;BME280_humidity;BME280_pressure;Samples;Min_cycle;Max_cycle;Signal;HPM_P1;HPM_P2
2022/08/08 00:01:07;;;;;;;;;;;;;;;;;;4973708;28;19973;-43
2022/08/08 00:03:33;;;;;;;;;;;;;;;;;;4974021;28;20427;-42
2022/08/08 00:05:58;;;;;;;;;;;;;;;;;;4973903;28;19917;-42
2022/08/08 00:08:23;;;;;;;;;;;;;;;;;;4973453;28;20357;-43
2022/08/08 00:10:49;;;;;;;;;;;;;;;;;;4973654;28;19910;-43
2022/08/08 00:13:14;;;;;;;;;;;;;;;;;;4973832;28;19949;-43
2022/08/08 00:15:39;;;;;;;;;;;;;;;;;;4973617;28;20253;-43
2022/08/08 00:18:04;;;;;;;;;;;;;;;;;;4973660;28;20387;-43
2022/08/08 00:20:30;;;;;;;;;;;;;;;;;;4973516;28;19989;-43
2022/08/08 00:22:55;;;;;;;;;;;;;;;;;;4973800;28;19906;-42
2022/08/08 00:25:20;;;;;;;;;;;;;;;;;;4973849;28;20422;-43
2022/08/08 00:27:45;;;;;;;;;;;;;;;;;;4973415;28;19973;-42
2022/08/08 00:30:11;;;;;;;;;;;;;;;;;;4956080;28;19910;-43
2022/08/08 00:32:36;;;;;;;;;;;;;;;;;;4973656;28;20005;-43
2022/08/08 00:35:12;;;;;;;;;;;;;;;;;;4973446;28;19933;-43
2022/08/08 00:37:38;;;;;;;;;;;;;;;;;;4973397;28;20007;-42
2022/08/08 00:40:03;;;;;;;;;;;;;;;;;;4955949;28;19973;-42
2022/08/08 00:42:28;;;;;;;;;;;;;;;;;;4973247;28;19910;-42
2022/08/08 00:44:53;;;;;;;;;;;;;;;;;;4973269;28;19907;-43
2022/08/08 00:47:19;;;;;;;;;;;;;;;;;;4973177;28;19938;-42
2022/08/08 00:49:44;;;;;;;;;;;;;;;;;;4939930;28;20419;-42
2022/08/08 00:52:09;;;;;;;;;;;;;;;;;;4973457;28;20365;-43
2022/08/08 00:54:35;;;;;;;;;;;;;;;;;;4955716;28;20412;-44
2022/08/08 00:57:00;;;;;;;;;;;;;;;;;;4973109;28;19958;-43
2022/08/08 00:59:26;;;;;;;;;;;;;;;;;;4973265;28;19906;-43
2022/08/08 01:01:51;;;;;;;;;;;;;;;;;;4949198;29;19919;-43
2022/08/08 01:04:28;;;;;;;;;;;;;;;;;;4933316;29;19911;-43
2022/08/08 01:06:53;;;;;;;;;;;;;;;;;;4933363;29;19910;-43
2022/08/08 01:09:21;;;;;;;;;;;;;;;;;;4933329;29;20358;-43
2022/08/08 01:11:51;;;;;;;;;;;;;;;;;;4933228;29;20292;-42
2022/08/08 01:14:17;;;;;;;;;;;;;;;;;;4933274;29;20378;-43
2022/08/08 01:16:45;;;;;;;;;;;;;;;;;;4933196;29;20386;-42
2022/08/08 01:19:13;;;;;;;;;;;;;;;;;;4933184;29;19911;-42
2022/08/08 01:21:39;;;;;;;;;;;;;;;;;;4934978;29;19958;-43
2022/08/08 01:24:05;;;;;;;;;;;;;;;;;;4921338;29;19918;-43
2022/08/08 01:26:30;;;;;;;;;;;;;;;;;;4936950;29;19925;-43
2022/08/08 01:28:55;;;;;;;;;;;;;;;;;;4936978;29;19961;-43
2022/08/08 01:31:21;;;;;;;;;;;;;;;;;;4937034;29;20005;-42
2022/08/08 01:33:46;;;;;;;;;;;;;;;;;;4938093;29;19911;-43
2022/08/08 01:36:11;;;;;;;;;;;;;;;;;;4938167;29;19915;-42
2022/08/08 01:38:36;;;;;;;;;;;;;;;;;;4936737;29;19910;-43
2022/08/08 01:41:02;;;;;;;;;;;;;;;;;;4938354;29;20010;-43
2022/08/08 01:43:29;;;;;;;;;;;;;;;;;;4936982;29;19914;-42
2022/08/08 01:45:54;;;;;;;;;;;;;;;;;;4936770;29;19915;-43
2022/08/08 01:48:20;;;;;;;;;;;;;;;;;;4936578;29;19910;-42
2022/08/08 01:50:45;;;;;;;;;;;;;;;;;;4937793;29;19914;-43
2022/08/08 01:53:10;;;;;;;;;;;;;;;;;;4937905;29;19911;-43
2022/08/08 01:55:36;;;;;;;;;;;;;;;;;;4936455;29;19918;-42
2022/08/08 01:58:04;;;;;;;;;;;;;;;;;;4936513;29;19956;-42
2022/08/08 02:00:29;;;;;;;;;;;;;;;;;;4943862;28;20388;-43
2022/08/08 02:03:00;;;;;;;;;;;;;;;;;;4955591;29;20025;-42
2022/08/08 02:05:25;;;;;;;;;;;;;;;;;;4956860;28;19957;-43
2022/08/08 02:07:51;;;;;;;;;;;;;;;;;;4956675;28;19910;-43
2022/08/08 02:10:16;;;;;;;;;;;;;;;;;;4955403;28;20005;-42
2022/08/08 02:12:42;;;;;;;;;;;;;;;;;;4955330;29;20663;-42
2022/08/08 02:15:10;;;;;;;;;;;;;;;;;;4956623;29;19921;-42
2022/08/08 02:17:39;;;;;;;;;;;;;;;;;;4955147;28;19906;-43
2022/08/08 02:20:04;;;;;;;;;;;;;;;;;;4955237;29;19924;-43
2022/08/08 02:22:32;;;;;;;;;;;;;;;;;;4955150;29;19906;-42
2022/08/08 02:25:01;;;;;;;;;;;;;;;;;;4955180;29;19918;-42
2022/08/08 02:27:26;;;;;;;;;;;;;;;;;;4955059;29;19907;-43
2022/08/08 02:29:51;;;;;;;;;;;;;;;;;;4939001;29;20285;-43
2022/08/08 02:32:16;;;;;;;;;;;;;;;;;;4954777;28;19906;-42
2022/08/08 02:34:42;;;;;;;;;;;;;;;;;;4956471;28;19911;-42
2022/08/08 02:37:07;;;;;;;;;;;;;;;;;;4956412;29;19965;-42
2022/08/08 02:39:33;;;;;;;;;;;;;;;;;;4954932;28;20396;-43
2022/08/08 02:41:58;;;;;;;;;;;;;;;;;;4956126;29;19957;-42
2022/08/08 02:44:24;;;;;;;;;;;;;;;;;;4955975;29;20429;-43
2022/08/08 02:46:50;;;;;;;;;;;;;;;;;;4954697;28;19942;-43
2022/08/08 02:49:18;;;;;;;;;;;;;;;;;;4954729;29;19921;-42
2022/08/08 02:51:43;;;;;;;;;;;;;;;;;;4954679;29;19906;-42
2022/08/08 02:54:09;;;;;;;;;;;;;;;;;;4954673;29;20377;-42
2022/08/08 02:56:34;;;;;;;;;;;;;;;;;;4954603;29;20384;-43
2022/08/08 02:58:59;;;;;;;;;;;;;;;;;;4955771;28;20412;-43
2022/08/08 03:01:24;;;;;;;;;;;;;;;;;;4951123;29;19930;-42
2022/08/08 03:03:50;;;;;;;;;;;;;;;;;;4935281;29;19911;-42
2022/08/08 03:06:15;;;;;;;;;;;;;;;;;;4935257;29;20245;-43
2022/08/08 03:08:40;;;;;;;;;;;;;;;;;;4935039;29;20348;-41
2022/08/08 03:11:05;;;;;;;;;;;;;;;;;;4936749;29;19907;-43
2022/08/08 03:13:31;;;;;;;;;;;;;;;;;;4935042;29;19911;-43
2022/08/08 03:15:56;;;;;;;;;;;;;;;;;;4935136;29;19997;-43
2022/08/08 03:18:21;;;;;;;;;;;;;;;;;;4935055;29;20301;-42
2022/08/08 03:20:49;;;;;;;;;;;;;;;;;;4936040;29;20001;-43
2022/08/08 03:23:18;;;;;;;;;;;;;;;;;;4934968;29;19918;-43
2022/08/08 03:25:43;;;;;;;;;;;;;;;;;;4934904;29;19906;-42
2022/08/08 03:28:09;;;;;;;;;;;;;;;;;;4936082;29;19917;-43
2022/08/08 03:30:35;;;;;;;;;;;;;;;;;;4936075;29;19966;-42
2022/08/08 03:33:17;;;;;;;;;;;;;;;;;;4934802;29;19953;-43
2022/08/08 03:35:43;;;;;;;;;;;;;;;;;;4934594;29;19911;-43
2022/08/08 03:38:09;;;;;;;;;;;;;;;;;;4934686;29;19993;-42
2022/08/08 03:40:34;;;;;;;;;;;;;;;;;;4935827;29;19930;-42
2022/08/08 03:43:02;;;;;;;;;;;;;;;;;;4935615;29;19911;-43
2022/08/08 03:45:27;;;;;;;;;;;;;;;;;;4950057;29;19967;-42
2022/08/08 03:47:52;;;;;;;;;;;;;;;;;;4934471;29;19952;-43
2022/08/08 03:50:18;;;;;;;;;;;;;;;;;;4934436;29;19910;-43
2022/08/08 03:52:43;;;;;;;;;;;;;;;;;;4934397;29;20347;-42
2022/08/08 03:55:08;;;;;;;;;;;;;;;;;;4934351;29;19911;-42
2022/08/08 03:57:34;;;;;;;;;;;;;;;;;;4934313;29;19907;-42
2022/08/08 03:59:59;;;;;;;;;;;;;;;;;;4936950;28;20040;-43
2022/08/08 04:02:24;;;;;;;;;;;;;;;;;;4973992;28;20001;-42
2022/08/08 04:04:50;;;;;;;;;;;;;;;;;;4956444;28;20005;-43
2022/08/08 04:07:15;;;;;;;;;;;;;;;;;;4956471;28;20413;-42
2022/08/08 04:09:40;;;;;;;;;;;;;;;;;;4956386;28;19980;-42
2022/08/08 04:12:05;;;;;;;;;;;;;;;;;;4974042;28;19910;-43
2022/08/08 04:14:43;;;;;;;;;;;;;;;;;;4956358;28;19918;-42
2022/08/08 04:17:09;;;;;;;;;;;;;;;;;;4973880;28;19913;-42
2022/08/08 04:19:35;;;;;;;;;;;;;;;;;;4956250;28;19914;-42
2022/08/08 04:22:00;;;;;;;;;;;;;;;;;;4956188;28;19926;-43
2022/08/08 04:24:32;;;;;;;;;;;;;;;;;;4940964;28;19913;-42
2022/08/08 04:27:01;;;;;;;;;;;;;;;;;;4956144;28;20012;-43
2022/08/08 04:29:28;;;;;;;;;;;;;;;;;;4956162;28;19953;-42
2022/08/08 04:31:54;;;;;;;;;;;;;;;;;;4973294;28;20004;-43
2022/08/08 04:34:19;;;;;;;;;;;;;;;;;;4973450;28;20001;-42
2022/08/08 04:36:44;;;;;;;;;;;;;;;;;;4955949;28;20029;-42
2022/08/08 04:39:10;;;;;;;;;;;;;;;;;;4973637;28;19906;-43
2022/08/08 04:41:35;;;;;;;;;;;;;;;;;;4973445;28;20474;-43
2022/08/08 04:44:00;;;;;;;;;;;;;;;;;;4955969;28;19910;-42
2022/08/08 04:46:26;;;;;;;;;;;;;;;;;;4955981;28;20336;-42
2022/08/08 04:48:52;;;;;;;;;;;;;;;;;;4955786;28;20423;-43
2022/08/08 04:51:17;;;;;;;;;;;;;;;;;;4973190;28;19910;-43
2022/08/08 04:53:42;;;;;;;;;;;;;;;;;;4955747;28;20288;-43
2022/08/08 04:56:08;;;;;;;;;;;;;;;;;;4955803;28;19980;-42
2022/08/08 04:58:34;;;;;;;;;;;;;;;;;;4955739;28;19910;-42
2022/08/08 05:01:00;;;;;;;;;;;;;;;;;;4968378;28;19929;-42
2022/08/08 05:03:27;;;;;;;;;;;;;;;;;;4952526;29;20250;-43
2022/08/08 05:05:52;;;;;;;;;;;;;;;;;;4952422;29;19917;-42
2022/08/08 05:08:18;;;;;;;;;;;;;;;;;;4952418;29;19906;-42
2022/08/08 05:10:45;;;;;;;;;;;;;;;;;;4952418;29;20009;-42
2022/08/08 05:13:10;;;;;;;;;;;;;;;;;;4952429;29;20000;-43
2022/08/08 05:15:35;;;;;;;;;;;;;;;;;;4952289;29;19914;-43
2022/08/08 05:18:01;;;;;;;;;;;;;;;;;;4952349;29;19907;-43
2022/08/08 05:20:27;;;;;;;;;;;;;;;;;;4952348;29;19918;-42
2022/08/08 05:22:52;;;;;;;;;;;;;;;;;;4952285;28;20273;-42
2022/08/08 05:25:19;;;;;;;;;;;;;;;;;;4952407;29;19921;-42
2022/08/08 05:27:44;;;;;;;;;;;;;;;;;;4953458;28;19965;-42
2022/08/08 05:30:11;;;;;;;;;;;;;;;;;;4952278;29;20285;-43
2022/08/08 05:32:42;;;;;;;;;;;;;;;;;;4952233;29;19910;-43
2022/08/08 05:35:09;;;;;;;;;;;;;;;;;;4952222;29;19910;-42
2022/08/08 05:37:40;;;;;;;;;;;;;;;;;;4952143;29;19914;-43
2022/08/08 05:40:05;;;;;;;;;;;;;;;;;;4952030;29;20032;-43
2022/08/08 05:42:31;;;;;;;;;;;;;;;;;;4952102;28;20322;-43
2022/08/08 05:44:56;;;;;;;;;;;;;;;;;;4952165;29;19910;-42
2022/08/08 05:47:22;;;;;;;;;;;;;;;;;;4952141;29;19913;-43
2022/08/08 05:49:47;;;;;;;;;;;;;;;;;;4968105;28;19910;-43
2022/08/08 05:52:13;;;;;;;;;;;;;;;;;;4952082;29;19953;-43
2022/08/08 05:54:38;;;;;;;;;;;;;;;;;;4953234;28;19911;-42
2022/08/08 05:57:04;;;;;;;;;;;;;;;;;;4952103;28;19918;-42
2022/08/08 05:59:29;;;;;;;;;;;;;;;;;;4952024;29;19954;-42
2022/08/08 06:01:55;;;;;;;;;;;;;;;;;;4951727;29;19985;-42
2022/08/08 06:04:21;;;;;;;;;;;;;;;;;;4951939;29;20357;-43
2022/08/08 06:06:47;;;;;;;;;;;;;;;;;;4953583;28;19918;-42
2022/08/08 06:09:12;;;;;;;;;;;;;;;;;;4955578;29;20324;-42
2022/08/08 06:11:38;;;;;;;;;;;;;;;;;;4955045;28;20042;-42
2022/08/08 06:14:05;;;;;;;;;;;;;;;;;;4955432;29;19915;-42
2022/08/08 06:16:32;;;;;;;;;;;;;;;;;;4955193;29;19911;-42
2022/08/08 06:19:03;;;;;;;;;;;;;;;;;;4955261;29;19910;-42
2022/08/08 06:21:30;;;;;;;;;;;;;;;;;;4955185;29;19918;-43
2022/08/08 06:23:56;;;;;;;;;;;;;;;;;;4955171;29;19910;-42
2022/08/08 06:26:21;;;;;;;;;;;;;;;;;;4971280;28;19950;-42
2022/08/08 06:28:46;;;;;;;;;;;;;;;;;;4954983;29;19910;-43
2022/08/08 06:31:12;;;;;;;;;;;;;;;;;;4955068;29;20281;-42
2022/08/08 06:33:37;;;;;;;;;;;;;;;;;;4954976;29;19911;-42
2022/08/08 06:36:03;;;;;;;;;;;;;;;;;;4954988;29;20009;-42
2022/08/08 06:38:28;;;;;;;;;;;;;;;;;;4954901;29;19946;-42
2022/08/08 06:40:54;;;;;;;;;;;;;;;;;;4956217;29;19922;-43
2022/08/08 06:43:20;;;;;;;;;;;;;;;;;;4954906;28;20356;-42
2022/08/08 06:45:52;;;;;;;;;;;;;;;;;;4955993;28;19914;-42
2022/08/08 06:48:18;;;;;;;;;;;;;;;;;;4954772;29;19910;-42
2022/08/08 06:50:43;;;;;;;;;;;;;;;;;;4954717;29;19907;-42
2022/08/08 06:53:11;;;;;;;;;;;;;;;;;;4954712;28;20631;-43
2022/08/08 06:55:37;;;;;;;;;;;;;;;;;;4954540;29;19953;-43
2022/08/08 06:58:02;;;;;;;;;;;;;;;;;;4956130;29;19914;-42
2022/08/08 07:00:27;;;;;;;;;;;;;;;;;;4954270;29;20377;-42
2022/08/08 07:02:53;;;;;;;;;;;;;;;;;;4955747;29;20420;-43
2022/08/08 07:05:20;;;;;;;;;;;;;;;;;;4954414;29;19914;-42
2022/08/08 07:07:46;;;;;;;;;;;;;;;;;;4955520;28;19961;-42
2022/08/08 07:10:12;;;;;;;;;;;;;;;;;;4954443;28;19942;-42
2022/08/08 07:12:41;;;;;;;;;;;;;;;;;;4954205;29;20000;-42
2022/08/08 07:15:07;;;;;;;;;;;;;;;;;;4954211;28;19989;-42
2022/08/08 07:17:34;;;;;;;;;;;;;;;;;;4954195;29;19918;-42
2022/08/08 07:19:59;;;;;;;;;;;;;;;;;;4953205;28;19958;-42
2022/08/08 07:22:24;;;;;;;;;;;;;;;;;;4970135;28;19926;-42
2022/08/08 07:24:50;;;;;;;;;;;;;;;;;;4954055;29;20009;-42
2022/08/08 07:27:15;;;;;;;;;;;;;;;;;;4954005;29;19921;-43
2022/08/08 07:29:41;;;;;;;;;;;;;;;;;;4953873;28;20450;-43
2022/08/08 07:32:06;;;;;;;;;;;;;;;;;;4953989;29;20370;-42
2022/08/08 07:34:31;;;;;;;;;;;;;;;;;;4953932;28;19906;-42
2022/08/08 07:36:58;;;;;;;;;;;;;;;;;;4953786;29;19911;-43
2022/08/08 07:39:23;;;;;;;;;;;;;;;;;;4953886;29;19929;-42
2022/08/08 07:41:49;;;;;;;;;;;;;;;;;;4969792;28;19926;-42
2022/08/08 07:44:14;;;;;;;;;;;;;;;;;;4937723;29;20037;-42
2022/08/08 07:46:39;;;;;;;;;;;;;;;;;;4954813;29;19910;-41
2022/08/08 07:49:12;;;;;;;;;;;;;;;;;;4953777;28;19972;-46
2022/08/08 07:51:37;;;;;;;;;;;;;;;;;;4953461;29;19933;-43
2022/08/08 07:54:03;;;;;;;;;;;;;;;;;;4954896;29;20364;-42
2022/08/08 07:56:30;;;;;;;;;;;;;;;;;;4953543;29;20427;-42
2022/08/08 07:58:55;;;;;;;;;;;;;;;;;;4954667;28;19997;-43
2022/08/08 08:01:22;;;;;;;;;;;;;;;;;;4953253;29;20373;-43
2022/08/08 08:03:49;;;;;;;;;;;;;;;;;;4954589;28;19946;-42
2022/08/08 08:06:17;;;;;;;;;;;;;;;;;;4954526;28;20283;-43
2022/08/08 08:08:44;;;;;;;;;;;;;;;;;;4953309;29;19907;-42
2022/08/08 08:11:10;;;;;;;;;;;;;;;;;;4953295;28;19911;-42
2022/08/08 08:13:35;;;;;;;;;;;;;;;;;;4953178;29;20349;-42
2022/08/08 08:16:01;;;;;;;;;;;;;;;;;;4953214;29;19910;-42
2022/08/08 08:18:28;;;;;;;;;;;;;;;;;;4953106;29;19907;-42
2022/08/08 08:20:53;;;;;;;;;;;;;;;;;;4969036;28;20412;-43
2022/08/08 08:23:18;;;;;;;;;;;;;;;;;;4937120;29;19906;-43
2022/08/08 08:25:44;;;;;;;;;;;;;;;;;;4952975;29;19965;-42
2022/08/08 08:28:11;;;;;;;;;;;;;;;;;;4952974;28;19910;-43
2022/08/08 08:30:37;;;;;;;;;;;;;;;;;;4953951;28;20012;-43
2022/08/08 08:33:02;;;;;;;;;;;;;;;;;;4952850;29;20002;-43
2022/08/08 08:35:28;;;;;;;;;;;;;;;;;;4952910;29;20420;-42
2022/08/08 08:37:53;;;;;;;;;;;;;;;;;;4952778;29;19918;-42
2022/08/08 08:40:19;;;;;;;;;;;;;;;;;;4954301;28;19937;-43
2022/08/08 08:42:44;;;;;;;;;;;;;;;;;;4952726;29;19914;-45
2022/08/08 08:45:12;;;;;;;;;;;;;;;;;;4952705;28;19912;-43
2022/08/08 08:47:37;;;;;;;;;;;;;;;;;;4952601;28;19914;-43
2022/08/08 08:50:03;;;;;;;;;;;;;;;;;;4952630;28;19917;-43
2022/08/08 08:52:28;;;;;;;;;;;;;;;;;;4954017;28;19907;-42
2022/08/08 08:54:55;;;;;;;;;;;;;;;;;;4968529;28;20395;-42
2022/08/08 08:57:20;;;;;;;;;;;;;;;;;;4953812;29;19906;-42
2022/08/08 08:59:47;;;;;;;;;;;;;;;;;;4936695;29;19914;-42
2022/08/08 09:02:12;;;;;;;;;;;;;;;;;;4952288;29;19928;-42
2022/08/08 09:04:38;;;;;;;;;;;;;;;;;;4952447;29;20067;-43
2022/08/08 09:07:08;;;;;;;;;;;;;;;;;;4952481;28;19913;-42
2022/08/08 09:09:33;;;;;;;;;;;;;;;;;;4952463;28;19914;-43
2022/08/08 09:12:06;;;;;;;;;;;;;;;;;;4952450;29;20007;-42
2022/08/08 09:14:31;;;;;;;;;;;;;;;;;;4952540;29;20054;-43
2022/08/08 09:16:58;;;;;;;;;;;;;;;;;;4952276;29;19910;-43
2022/08/08 09:19:23;;;;;;;;;;;;;;;;;;4952488;29;19918;-42
2022/08/08 09:21:51;;;;;;;;;;;;;;;;;;4952245;29;19922;-42
2022/08/08 09:24:17;;;;;;;;;;;;;;;;;;4968368;28;19965;-42
2022/08/08 09:26:43;;;;;;;;;;;;;;;;;;4952247;28;19907;-43
2022/08/08 09:29:08;;;;;;;;;;;;;;;;;;4952304;29;19910;-42
2022/08/08 09:31:34;;;;;;;;;;;;;;;;;;4953548;29;20000;-42
2022/08/08 09:33:59;;;;;;;;;;;;;;;;;;4952255;29;19918;-43
2022/08/08 09:36:25;;;;;;;;;;;;;;;;;;4952297;29;19957;-43
2022/08/08 09:38:50;;;;;;;;;;;;;;;;;;4952163;28;19917;-42
2022/08/08 09:41:16;;;;;;;;;;;;;;;;;;4952202;28;19965;-42
2022/08/08 09:43:41;;;;;;;;;;;;;;;;;;4957094;29;19933;-43
2022/08/08 09:46:06;;;;;;;;;;;;;;;;;;4957182;28;20281;-43
2022/08/08 09:48:32;;;;;;;;;;;;;;;;;;4955920;29;19933;-42
2022/08/08 09:50:57;;;;;;;;;;;;;;;;;;4957261;29;19964;-41
2022/08/08 09:53:24;;;;;;;;;;;;;;;;;;4957329;28;19934;-43
2022/08/08 09:55:49;;;;;;;;;;;;;;;;;;4956937;28;19906;-43
2022/08/08 09:58:15;;;;;;;;;;;;;;;;;;4956928;28;20009;-42
2022/08/08 10:00:40;;;;;;;;;;;;;;;;;;4963469;28;20016;-43
2022/08/08 10:03:06;;;;;;;;;;;;;;;;;;4976511;28;19917;-42
2022/08/08 10:05:31;;;;;;;;;;;;;;;;;;4976064;28;20041;-42
2022/08/08 10:07:57;;;;;;;;;;;;;;;;;;4975969;28;20032;-42
2022/08/08 10:10:22;;;;;;;;;;;;;;;;;;4976098;28;19906;-43
2022/08/08 10:12:48;;;;;;;;;;;;;;;;;;4975906;28;19976;-43
2022/08/08 10:15:13;;;;;;;;;;;;;;;;;;4976037;28;19906;-43
2022/08/08 10:17:39;;;;;;;;;;;;;;;;;;4958412;28;19910;-42
2022/08/08 10:20:04;;;;;;;;;;;;;;;;;;4975827;28;20280;-42
2022/08/08 10:22:30;;;;;;;;;;;;;;;;;;4975773;28;19921;-42
2022/08/08 10:24:55;;;;;;;;;;;;;;;;;;4975726;28;19914;-42
2022/08/08 10:27:21;;;;;;;;;;;;;;;;;;4975942;28;19989;-43
2022/08/08 10:29:46;;;;;;;;;;;;;;;;;;4975611;28;19914;-42
2022/08/08 10:34:56;;;;;;;;;;;;;;;;;;4975512;28;19940;-43
2022/08/08 10:37:21;;;;;;;;;;;;;;;;;;4975536;28;20353;-42
2022/08/08 10:39:47;;;;;;;;;;;;;;;;;;4975766;28;19910;-42
2022/08/08 10:42:15;;;;;;;;;;;;;;;;;;4975380;28;19965;-43
2022/08/08 10:44:40;;;;;;;;;;;;;;;;;;4975415;28;19909;-43
2022/08/08 10:47:06;;;;;;;;;;;;;;;;;;4975370;28;19907;-43
2022/08/08 10:49:31;;;;;;;;;;;;;;;;;;4975587;28;19989;-43
2022/08/08 10:51:57;;;;;;;;;;;;;;;;;;4975225;28;20341;-42
2022/08/08 10:54:22;;;;;;;;;;;;;;;;;;4975396;28;19910;-42
2022/08/08 10:56:47;;;;;;;;;;;;;;;;;;4975337;28;20376;-43
2022/08/08 10:59:12;;;;;;;;;;;;;;;;;;4975480;28;19926;-42
2022/08/08 11:01:38;;;;;;;;;;;;;;;;;;4974890;28;20355;-42
2022/08/08 11:04:04;;;;;;;;;;;;;;;;;;4975377;28;19914;-43
2022/08/08 11:06:29;;;;;;;;;;;;;;;;;;4975040;28;19953;-43
2022/08/08 11:08:55;;;;;;;;;;;;;;;;;;4974870;28;19918;-43
2022/08/08 11:11:21;;;;;;;;;;;;;;;;;;4974912;28;19957;-42
2022/08/08 11:13:46;;;;;;;;;;;;;;;;;;4974852;28;19997;-42
2022/08/08 11:16:12;;;;;;;;;;;;;;;;;;4974811;28;20086;-43
2022/08/08 11:18:37;;;;;;;;;;;;;;;;;;4974683;28;19909;-42
2022/08/08 11:21:02;;;;;;;;;;;;;;;;;;4974651;28;19913;-42
2022/08/08 11:23:30;;;;;;;;;;;;;;;;;;4974735;28;19917;-43
2022/08/08 11:25:55;;;;;;;;;;;;;;;;;;4974805;28;19910;-42
2022/08/08 11:28:24;;;;;;;;;;;;;;;;;;4974649;28;19913;-42
2022/08/08 11:30:49;;;;;;;;;;;;;;;;;;4974505;28;20399;-43
2022/08/08 11:33:15;;;;;;;;;;;;;;;;;;4974530;28;20002;-42
2022/08/08 11:35:40;;;;;;;;;;;;;;;;;;4974716;28;19964;-42
2022/08/08 11:38:06;;;;;;;;;;;;;;;;;;4974329;28;19918;-42
2022/08/08 11:40:31;;;;;;;;;;;;;;;;;;4974436;28;19906;-42
2022/08/08 11:42:57;;;;;;;;;;;;;;;;;;4974292;28;19914;-42
2022/08/08 11:45:22;;;;;;;;;;;;;;;;;;4974276;28;19910;-42
2022/08/08 11:47:47;;;;;;;;;;;;;;;;;;4974136;28;19925;-42
2022/08/08 11:50:13;;;;;;;;;;;;;;;;;;4974537;28;20001;-44
2022/08/08 11:52:38;;;;;;;;;;;;;;;;;;4974072;28;19910;-43
2022/08/08 11:55:03;;;;;;;;;;;;;;;;;;4974423;28;19906;-43
2022/08/08 11:57:29;;;;;;;;;;;;;;;;;;4974115;28;20004;-42
2022/08/08 11:59:54;;;;;;;;;;;;;;;;;;4973812;28;20004;-43
2022/08/08 12:02:20;;;;;;;;;;;;;;;;;;4973897;28;19918;-43
2022/08/08 12:04:45;;;;;;;;;;;;;;;;;;4973318;28;19909;-43
2022/08/08 12:07:11;;;;;;;;;;;;;;;;;;4973822;28;19964;-43
2022/08/08 12:09:36;;;;;;;;;;;;;;;;;;4973843;28;19911;-43
2022/08/08 12:12:01;;;;;;;;;;;;;;;;;;4973737;28;19920;-43
2022/08/08 12:14:27;;;;;;;;;;;;;;;;;;4974048;28;19910;-43
2022/08/08 12:16:52;;;;;;;;;;;;;;;;;;4973901;28;20415;-42
2022/08/08 12:19:18;;;;;;;;;;;;;;;;;;4973757;28;20049;-42
2022/08/08 12:21:43;;;;;;;;;;;;;;;;;;4973499;28;19918;-42
2022/08/08 12:24:10;;;;;;;;;;;;;;;;;;4973641;28;19906;-42
2022/08/08 12:26:35;;;;;;;;;;;;;;;;;;4973591;28;19946;-42
2022/08/08 12:29:01;;;;;;;;;;;;;;;;;;4973707;28;19964;-43
2022/08/08 12:31:26;;;;;;;;;;;;;;;;;;4973783;28;20467;-42
2022/08/08 12:33:52;;;;;;;;;;;;;;;;;;4956071;28;19937;-42
2022/08/08 12:36:17;;;;;;;;;;;;;;;;;;4956048;28;19910;-43
2022/08/08 12:38:48;;;;;;;;;;;;;;;;;;4973427;28;19996;-43
2022/08/08 12:41:14;;;;;;;;;;;;;;;;;;4973349;28;19918;-43
2022/08/08 12:43:39;;;;;;;;;;;;;;;;;;4973291;28;19913;-43
2022/08/08 12:46:05;;;;;;;;;;;;;;;;;;4973369;28;20134;-43
2022/08/08 12:48:30;;;;;;;;;;;;;;;;;;4973571;28;20417;-42
2022/08/08 12:50:57;;;;;;;;;;;;;;;;;;4973133;28;20017;-43
2022/08/08 12:53:23;;;;;;;;;;;;;;;;;;4973248;28;19929;-43
2022/08/08 12:55:49;;;;;;;;;;;;;;;;;;4973297;28;20364;-43
2022/08/08 12:58:14;;;;;;;;;;;;;;;;;;4973157;28;19910;-43
2022/08/08 13:00:40;;;;;;;;;;;;;;;;;;4972766;28;20004;-43
2022/08/08 13:03:05;;;;;;;;;;;;;;;;;;4973387;28;19980;-43
2022/08/08 13:05:30;;;;;;;;;;;;;;;;;;4973245;28;19922;-42
2022/08/08 13:07:56;;;;;;;;;;;;;;;;;;4973172;28;20281;-42
2022/08/08 13:10:21;;;;;;;;;;;;;;;;;;4973082;28;19910;-42
2022/08/08 13:12:49;;;;;;;;;;;;;;;;;;4972922;28;20383;-43
2022/08/08 13:15:14;;;;;;;;;;;;;;;;;;4973049;28;20381;-43
2022/08/08 13:17:40;;;;;;;;;;;;;;;;;;4974883;28;19910;-42
2022/08/08 13:20:06;;;;;;;;;;;;;;;;;;4976978;28;20291;-42
2022/08/08 13:22:31;;;;;;;;;;;;;;;;;;4976863;28;19965;-43
2022/08/08 13:24:56;;;;;;;;;;;;;;;;;;4976811;28;19914;-45
2022/08/08 13:27:22;;;;;;;;;;;;;;;;;;4977130;28;20292;-43
2022/08/08 13:29:47;;;;;;;;;;;;;;;;;;4976761;28;20356;-43
2022/08/08 13:32:12;;;;;;;;;;;;;;;;;;4976958;28;19914;-44
2022/08/08 13:34:38;;;;;;;;;;;;;;;;;;4977004;28;19917;-43
2022/08/08 13:37:03;;;;;;;;;;;;;;;;;;4976579;28;19913;-42
2022/08/08 13:39:28;;;;;;;;;;;;;;;;;;4959229;28;19969;-43
2022/08/08 13:41:54;;;;;;;;;;;;;;;;;;4976308;28;19914;-43
2022/08/08 13:44:19;;;;;;;;;;;;;;;;;;4959195;28;19914;-42
2022/08/08 13:46:44;;;;;;;;;;;;;;;;;;4976289;28;19910;-42
2022/08/08 13:49:10;;;;;;;;;;;;;;;;;;4976464;28;19914;-43
2022/08/08 13:51:35;;;;;;;;;;;;;;;;;;4959190;28;20032;-42
2022/08/08 13:54:01;;;;;;;;;;;;;;;;;;4976251;28;19914;-43
2022/08/08 13:56:26;;;;;;;;;;;;;;;;;;4976597;28;19969;-42
2022/08/08 13:58:54;;;;;;;;;;;;;;;;;;4976496;28;19917;-46
2022/08/08 14:01:20;;;;;;;;;;;;;;;;;;4976033;28;19922;-43
2022/08/08 14:03:45;;;;;;;;;;;;;;;;;;4976149;28;20376;-42
2022/08/08 14:06:11;;;;;;;;;;;;;;;;;;4976148;28;20431;-43
2022/08/08 14:08:36;;;;;;;;;;;;;;;;;;4975820;28;20271;-43
2022/08/08 14:11:01;;;;;;;;;;;;;;;;;;4975981;28;19913;-43
2022/08/08 14:13:27;;;;;;;;;;;;;;;;;;4976286;28;19989;-42
2022/08/08 14:15:52;;;;;;;;;;;;;;;;;;4976058;28;19910;-43
2022/08/08 14:18:18;;;;;;;;;;;;;;;;;;4976207;28;19921;-42
2022/08/08 14:20:44;;;;;;;;;;;;;;;;;;4976045;28;19914;-44
2022/08/08 14:23:09;;;;;;;;;;;;;;;;;;4976003;28;19914;-42
2022/08/08 14:25:35;;;;;;;;;;;;;;;;;;4975827;28;19916;-42
2022/08/08 14:28:00;;;;;;;;;;;;;;;;;;4975156;28;19914;-43
2022/08/08 14:30:25;;;;;;;;;;;;;;;;;;4958327;28;19980;-42
2022/08/08 14:32:51;;;;;;;;;;;;;;;;;;4975620;28;19965;-43
2022/08/08 14:35:16;;;;;;;;;;;;;;;;;;4975686;28;19953;-42
2022/08/08 14:37:41;;;;;;;;;;;;;;;;;;4975407;28;19910;-42
2022/08/08 14:40:07;;;;;;;;;;;;;;;;;;4975558;28;19953;-42
2022/08/08 14:42:32;;;;;;;;;;;;;;;;;;4975502;28;19941;-42
2022/08/08 14:44:57;;;;;;;;;;;;;;;;;;4975336;28;20411;-43
2022/08/08 14:47:24;;;;;;;;;;;;;;;;;;4958032;28;19913;-42
2022/08/08 14:49:49;;;;;;;;;;;;;;;;;;4957874;28;19982;-43
2022/08/08 14:52:14;;;;;;;;;;;;;;;;;;4975591;28;19910;-42
2022/08/08 14:54:40;;;;;;;;;;;;;;;;;;4975237;28;19953;-43
2022/08/08 14:57:05;;;;;;;;;;;;;;;;;;4975152;28;19961;-43
2022/08/08 14:59:30;;;;;;;;;;;;;;;;;;4975444;28;19910;-44
2022/08/08 15:01:56;;;;;;;;;;;;;;;;;;4974869;28;19957;-43
2022/08/08 15:04:22;;;;;;;;;;;;;;;;;;4975031;28;19906;-43
2022/08/08 15:06:47;;;;;;;;;;;;;;;;;;4974926;28;19909;-43
2022/08/08 15:09:13;;;;;;;;;;;;;;;;;;4975073;28;20474;-42
2022/08/08 15:11:38;;;;;;;;;;;;;;;;;;4975177;28;20009;-43
2022/08/08 15:14:03;;;;;;;;;;;;;;;;;;4974940;28;19978;-43
2022/08/08 15:16:29;;;;;;;;;;;;;;;;;;4974862;28;20693;-42
2022/08/08 15:18:55;;;;;;;;;;;;;;;;;;4974781;28;19929;-44
2022/08/08 15:21:20;;;;;;;;;;;;;;;;;;4975008;28;19925;-44
2022/08/08 15:23:46;;;;;;;;;;;;;;;;;;4974937;28;19964;-43
2022/08/08 15:26:11;;;;;;;;;;;;;;;;;;4974894;28;20348;-43
2022/08/08 15:28:37;;;;;;;;;;;;;;;;;;4974948;28;19980;-43
2022/08/08 15:31:02;;;;;;;;;;;;;;;;;;4974529;28;20398;-43
2022/08/08 15:33:27;;;;;;;;;;;;;;;;;;4974528;28;19913;-42
2022/08/08 15:35:53;;;;;;;;;;;;;;;;;;4957159;28;19917;-42
2022/08/08 15:38:19;;;;;;;;;;;;;;;;;;4974537;28;19912;-43
2022/08/08 15:40:47;;;;;;;;;;;;;;;;;;4973361;28;19957;-43
2022/08/08 15:43:12;;;;;;;;;;;;;;;;;;4974377;28;20392;-43
2022/08/08 15:45:37;;;;;;;;;;;;;;;;;;4974339;28;20012;-43
2022/08/08 15:48:03;;;;;;;;;;;;;;;;;;4974153;28;19917;-42
2022/08/08 15:50:59;;;;;;;;;;;;;;;;;;4974317;28;19914;-43
2022/08/08 15:53:14;;;;;;;;;;;;;;;;;;4974075;28;19914;-43
2022/08/08 15:55:39;;;;;;;;;;;;;;;;;;4974052;28;19925;-42
2022/08/08 15:58:05;;;;;;;;;;;;;;;;;;4974174;28;19910;-43
2022/08/08 16:00:30;;;;;;;;;;;;;;;;;;4973993;28;19917;-42
2022/08/08 16:02:58;;;;;;;;;;;;;;;;;;4974119;28;19993;-43
2022/08/08 16:05:23;;;;;;;;;;;;;;;;;;4973901;28;19906;-43
2022/08/08 16:07:49;;;;;;;;;;;;;;;;;;4956481;28;19929;-43
2022/08/08 16:10:14;;;;;;;;;;;;;;;;;;4974169;28;19906;-43
2022/08/08 16:12:40;;;;;;;;;;;;;;;;;;4973814;28;20016;-43
2022/08/08 16:15:05;;;;;;;;;;;;;;;;;;4973886;28;19906;-42
2022/08/08 16:17:30;;;;;;;;;;;;;;;;;;4973675;28;19914;-43
2022/08/08 16:19:56;;;;;;;;;;;;;;;;;;4973939;28;19910;-43
2022/08/08 16:22:21;;;;;;;;;;;;;;;;;;4973679;28;20395;-43
2022/08/08 16:24:47;;;;;;;;;;;;;;;;;;4973829;28;19906;-43
2022/08/08 16:27:13;;;;;;;;;;;;;;;;;;4973515;28;20292;-43
2022/08/08 16:29:38;;;;;;;;;;;;;;;;;;4973553;28;19906;-43
2022/08/08 16:32:05;;;;;;;;;;;;;;;;;;4973717;28;19917;-43
2022/08/08 16:34:30;;;;;;;;;;;;;;;;;;4973503;28;20368;-43
2022/08/08 16:36:56;;;;;;;;;;;;;;;;;;4973371;28;19918;-42
2022/08/08 16:39:21;;;;;;;;;;;;;;;;;;4973636;28;19906;-43